This is the latest recevied weather packets stored in our database for station/object W1CAT. If no packets are shown the sender has not sent any weather packets the latest 10 day(s).
| Time | Temp. | Humidity | Pressure | Rain* | Wind** | Luminosity | Snow |
|---|---|---|---|---|---|---|---|
| 1777767355 | 18.89° C | 24% | - | 0 mm | - | - | - |
| 1777767052 | 18.33° C | 25% | - | 0 mm | - | - | - |
| 1777766750 | 18.89° C | 24% | - | 0 mm | - | - | - |
| 1777766447 | 20° C | 24% | - | 0 mm | - | - | - |
| 1777766143 | 20° C | 23% | - | 0 mm | - | - | - |
| 1777765841 | 20° C | 24% | - | 0 mm | - | - | - |
| 1777765537 | 20° C | 22% | - | 0 mm | - | - | - |
| 1777765235 | 20° C | 23% | - | 0 mm | - | - | - |
| 1777764935 | 18.89° C | 23% | - | 0 mm | - | - | - |
| 1777764632 | 18.33° C | 24% | - | 0 mm | - | - | - |
| 1777764328 | 16.67° C | 25% | - | 0 mm | - | - | - |
| 1777764026 | 16.11° C | 26% | - | 0 mm | - | - | - |
| 1777763723 | 15.56° C | 27% | - | 0 mm | - | - | - |
| 1777763421 | 16.11° C | 25% | - | 0 mm | - | - | - |
| 1777763119 | 16.67° C | 25% | - | 0 mm | - | - | - |
| 1777762817 | 18.89° C | 24% | - | 0 mm | - | - | - |
| 1777762517 | 19.44° C | 23% | - | 0 mm | - | - | - |
| 1777762214 | 19.44° C | 22% | - | 0 mm | - | - | - |
| 1777761910 | 17.78° C | 25% | - | 0 mm | - | - | - |
| 1777761608 | 20° C | 23% | - | 0 mm | - | - | - |
| 1777761305 | 20.56° C | 23% | - | 0 mm | - | - | - |
| 1777761003 | 20.56° C | 21% | - | 0 mm | - | - | - |
| 1777760700 | 20° C | 23% | - | 0 mm | - | - | - |
| 1777760396 | 20.56° C | 22% | - | 0 mm | - | - | - |
| 1777760093 | 20.56° C | 23% | - | 0 mm | - | - | - |
* Rain latest hour (hover to see other rain measurements)
** Current wind speed in m/s (hover to see current wind gust speed)